createdAt,value
2022-08-21T00:01:57.029Z,11.27
2022-08-21T00:04:29.375Z,11.00
2022-08-21T00:06:59.615Z,9.83
2022-08-21T00:09:28.253Z,10.57
2022-08-21T00:11:56.870Z,9.90
2022-08-21T00:14:25.519Z,10.53
2022-08-21T00:16:55.864Z,11.50
2022-08-21T00:19:30.469Z,11.23
2022-08-21T00:21:58.984Z,11.00
2022-08-21T00:24:28.161Z,11.27
2022-08-21T00:26:56.841Z,11.73
2022-08-21T00:29:25.442Z,11.30
2022-08-21T00:31:54.426Z,11.53
2022-08-21T00:34:22.942Z,12.10
2022-08-21T00:36:52.780Z,12.10
2022-08-21T00:39:21.254Z,12.70
2022-08-21T00:41:49.722Z,12.87
2022-08-21T00:44:18.740Z,12.00
2022-08-21T00:46:47.621Z,11.87
2022-08-21T00:49:16.164Z,11.47
2022-08-21T00:51:49.803Z,11.60
2022-08-21T00:54:22.264Z,11.03
2022-08-21T00:56:55.217Z,11.13
2022-08-21T00:59:25.420Z,11.80
2022-08-21T01:01:54.054Z,10.63
2022-08-21T01:04:23.293Z,11.57
2022-08-21T01:06:52.393Z,11.17
2022-08-21T01:09:22.250Z,11.33
2022-08-21T01:11:50.922Z,10.40
2022-08-21T01:14:19.900Z,10.00
2022-08-21T01:16:51.128Z,10.93
2022-08-21T01:19:22.322Z,10.37
2022-08-21T01:21:53.303Z,10.43
2022-08-21T01:24:22.646Z,11.90
2022-08-21T01:26:51.787Z,11.33
2022-08-21T01:29:29.481Z,11.27
2022-08-21T01:31:58.139Z,11.47
2022-08-21T01:34:26.629Z,10.80
2022-08-21T01:36:56.420Z,10.97
2022-08-21T01:39:24.953Z,10.47
2022-08-21T01:41:53.487Z,10.23
2022-08-21T01:44:23.511Z,10.97
2022-08-21T01:46:52.490Z,10.43
2022-08-21T01:49:21.609Z,10.80
2022-08-21T01:51:50.197Z,12.63
2022-08-21T01:54:20.480Z,11.17
2022-08-21T01:56:52.214Z,11.03
2022-08-21T01:59:21.259Z,10.87
2022-08-21T02:01:50.210Z,10.87
2022-08-21T02:04:19.378Z,10.50
2022-08-21T02:06:48.201Z,11.07
2022-08-21T02:09:17.119Z,10.93
2022-08-21T02:11:47.071Z,11.60
2022-08-21T02:14:31.934Z,11.07
2022-08-21T02:17:05.399Z,11.87
2022-08-21T02:19:40.614Z,11.37
2022-08-21T02:22:10.850Z,10.87
2022-08-21T02:24:54.639Z,10.50
2022-08-21T02:27:25.956Z,11.10
2022-08-21T02:29:56.111Z,11.50
2022-08-21T02:32:24.592Z,11.10
2022-08-21T02:34:53.509Z,12.00
2022-08-21T02:37:22.079Z,12.37
2022-08-21T02:39:50.746Z,11.93
2022-08-21T02:42:19.382Z,12.67
2022-08-21T02:44:49.209Z,12.07
2022-08-21T02:47:17.784Z,12.60
2022-08-21T02:49:46.293Z,10.93
2022-08-21T02:52:15.451Z,11.43
2022-08-21T02:54:43.914Z,11.30
2022-08-21T02:57:12.441Z,10.90
2022-08-21T02:59:41.763Z,11.53
2022-08-21T03:02:12.110Z,10.80
2022-08-21T03:04:46.043Z,11.73
2022-08-21T03:07:16.399Z,11.00
2022-08-21T03:09:55.371Z,10.23
2022-08-21T03:12:24.341Z,10.07
2022-08-21T03:14:52.881Z,10.73
2022-08-21T03:17:29.526Z,9.70
2022-08-21T03:19:59.123Z,9.97
2022-08-21T03:22:30.689Z,9.60
2022-08-21T03:25:00.308Z,10.03
2022-08-21T03:27:29.914Z,9.30
2022-08-21T03:29:59.752Z,8.80
2022-08-21T03:32:30.123Z,8.10
2022-08-21T03:34:58.613Z,8.00
2022-08-21T03:37:27.111Z,8.17
2022-08-21T03:39:55.749Z,7.70
2022-08-21T03:42:24.576Z,7.50
2022-08-21T03:44:53.032Z,6.93
2022-08-21T03:47:23.022Z,7.70
2022-08-21T03:49:53.218Z,7.60
2022-08-21T03:52:21.721Z,7.60
2022-08-21T03:54:51.281Z,7.73
2022-08-21T03:57:19.911Z,7.20
2022-08-21T03:59:48.457Z,7.63
2022-08-21T04:02:20.322Z,7.10
2022-08-21T04:04:48.859Z,7.27
2022-08-21T04:07:18.630Z,7.50
2022-08-21T04:09:47.514Z,7.30
2022-08-21T04:12:16.000Z,7.33
2022-08-21T04:14:44.470Z,7.93
2022-08-21T04:17:12.962Z,7.37
2022-08-21T04:19:41.377Z,7.40
2022-08-21T04:22:09.921Z,6.80
2022-08-21T04:24:39.971Z,7.50
2022-08-21T04:27:08.460Z,7.37
2022-08-21T04:29:39.914Z,7.40
2022-08-21T04:32:08.788Z,7.93
2022-08-21T04:34:37.449Z,8.27
2022-08-21T04:37:06.104Z,7.83
2022-08-21T04:39:34.663Z,7.97
2022-08-21T04:42:05.349Z,8.63
2022-08-21T04:44:33.780Z,8.50
2022-08-21T04:47:02.571Z,8.70
2022-08-21T04:49:32.086Z,9.13
2022-08-21T04:52:02.582Z,8.47
2022-08-21T04:54:31.108Z,8.53
2022-08-21T04:57:04.922Z,8.33
2022-08-21T04:59:38.782Z,8.03
2022-08-21T05:02:08.816Z,8.00
2022-08-21T05:04:41.260Z,9.30
2022-08-21T05:07:14.708Z,9.23
2022-08-21T05:09:43.687Z,8.20
2022-08-21T05:12:12.473Z,8.40
2022-08-21T05:14:43.270Z,8.03
2022-08-21T05:17:11.939Z,8.03
2022-08-21T05:19:40.939Z,7.67
2022-08-21T05:22:10.291Z,8.20
2022-08-21T05:24:39.640Z,7.90
2022-08-21T05:27:08.260Z,7.37
2022-08-21T05:29:36.641Z,7.00
2022-08-21T05:32:12.879Z,7.37
2022-08-21T05:34:41.391Z,8.80
2022-08-21T05:37:12.073Z,8.33
2022-08-21T05:40:20.217Z,7.77
2022-08-21T05:42:29.160Z,9.03
2022-08-21T05:44:57.577Z,7.57
2022-08-21T05:47:27.503Z,7.50
2022-08-21T05:49:55.941Z,7.67
2022-08-21T05:52:25.261Z,7.87
2022-08-21T05:54:54.924Z,7.10
2022-08-21T05:57:24.282Z,6.87
2022-08-21T05:59:52.720Z,6.67
2022-08-21T06:02:22.667Z,6.83
2022-08-21T06:04:52.971Z,7.30
2022-08-21T06:07:21.431Z,7.20
2022-08-21T06:09:49.913Z,6.13
2022-08-21T06:12:19.210Z,6.17
2022-08-21T06:14:47.784Z,6.33
2022-08-21T06:17:16.742Z,5.70
2022-08-21T06:19:45.190Z,7.30
2022-08-21T06:22:15.966Z,6.50
2022-08-21T06:24:44.559Z,6.33
2022-08-21T06:27:13.027Z,6.30
2022-08-21T06:29:44.612Z,6.83
2022-08-21T06:32:14.902Z,6.20
2022-08-21T06:34:44.930Z,5.57
2022-08-21T06:37:13.411Z,5.60
2022-08-21T06:39:45.456Z,6.00
2022-08-21T06:42:16.566Z,6.00
2022-08-21T06:44:46.779Z,6.70
2022-08-21T06:47:15.242Z,6.00
2022-08-21T06:49:43.848Z,6.00
2022-08-21T06:52:13.764Z,6.30
2022-08-21T06:54:43.898Z,6.47
2022-08-21T06:57:12.491Z,6.73
2022-08-21T06:59:40.989Z,7.03
2022-08-21T07:02:09.771Z,6.90
2022-08-21T07:04:38.273Z,7.53
2022-08-21T07:07:06.681Z,7.53
2022-08-21T07:09:35.622Z,6.93
2022-08-21T07:12:06.053Z,6.80
2022-08-21T07:14:34.560Z,7.23
2022-08-21T07:17:03.022Z,7.20
2022-08-21T07:19:31.611Z,7.13
2022-08-21T07:22:03.398Z,7.40
2022-08-21T07:24:31.952Z,7.57
2022-08-21T07:27:00.366Z,6.97
2022-08-21T07:29:30.245Z,7.00
2022-08-21T07:31:58.895Z,7.47
2022-08-21T07:34:27.366Z,7.07
2022-08-21T07:36:55.841Z,7.80
2022-08-21T07:39:24.573Z,7.63
2022-08-21T07:41:53.130Z,7.50
2022-08-21T07:44:21.631Z,7.80
2022-08-21T07:46:51.479Z,8.17
2022-08-21T07:49:19.881Z,7.57
2022-08-21T07:51:48.377Z,7.90
2022-08-21T07:54:17.239Z,7.30
2022-08-21T07:56:46.690Z,6.80
2022-08-21T07:59:15.379Z,8.03
2022-08-21T08:01:43.965Z,7.70
2022-08-21T08:04:13.990Z,8.43
2022-08-21T08:06:42.481Z,8.23
2022-08-21T08:09:10.971Z,7.65
2022-08-21T08:11:44.142Z,8.05
2022-08-21T08:14:12.722Z,8.02
2022-08-21T08:16:41.459Z,8.35
2022-08-21T08:19:09.997Z,8.23
2022-08-21T08:21:39.874Z,7.90
2022-08-21T08:24:19.271Z,8.73
2022-08-21T08:26:50.565Z,8.90
2022-08-21T08:29:22.410Z,7.47
2022-08-21T08:31:50.842Z,8.50
2022-08-21T08:34:23.443Z,8.02
2022-08-21T08:36:55.367Z,8.87
2022-08-21T08:39:26.763Z,9.02
2022-08-21T08:42:33.476Z,9.35
2022-08-21T08:45:01.178Z,8.40
2022-08-21T08:47:31.900Z,8.65
2022-08-21T08:50:05.687Z,8.48
2022-08-21T08:52:37.498Z,8.20
2022-08-21T08:55:09.711Z,8.07
2022-08-21T08:57:39.720Z,8.60
2022-08-21T09:00:11.590Z,8.30
2022-08-21T09:02:42.041Z,8.40
2022-08-21T09:05:19.382Z,8.43
2022-08-21T09:08:00.984Z,8.00
2022-08-21T09:10:42.241Z,8.60
2022-08-21T09:13:20.161Z,8.83
2022-08-21T09:15:56.570Z,8.52
2022-08-21T09:18:40.280Z,8.00
2022-08-21T09:21:17.973Z,8.80
2022-08-21T09:23:56.879Z,8.50
2022-08-21T09:26:28.281Z,8.23
2022-08-21T09:29:00.123Z,8.00
2022-08-21T09:31:33.615Z,8.15
2022-08-21T09:34:03.565Z,7.87
2022-08-21T09:36:39.479Z,8.57
2022-08-21T09:39:11.160Z,8.67
2022-08-21T09:41:41.135Z,7.80
2022-08-21T09:44:10.780Z,8.07
2022-08-21T09:46:39.300Z,8.00
2022-08-21T09:49:15.046Z,7.53
2022-08-21T09:51:54.800Z,7.17
2022-08-21T09:54:31.469Z,6.70
2022-08-21T09:57:19.709Z,7.13
2022-08-21T09:59:49.676Z,7.07
2022-08-21T10:02:30.829Z,8.80
2022-08-21T10:05:05.970Z,9.10
2022-08-21T10:07:38.481Z,8.20
2022-08-21T10:10:11.507Z,8.17
2022-08-21T10:12:48.673Z,7.70
2022-08-21T10:15:24.511Z,7.80
2022-08-21T10:18:06.046Z,7.73
2022-08-21T10:20:43.846Z,9.50
2022-08-21T10:23:41.132Z,9.77
2022-08-21T10:26:19.481Z,7.53
2022-08-21T10:28:56.817Z,7.40
2022-08-21T10:31:34.624Z,7.00
2022-08-21T10:34:19.122Z,7.05
2022-08-21T10:36:52.871Z,7.22
2022-08-21T10:39:35.576Z,8.10
2022-08-21T10:42:21.203Z,7.73
2022-08-21T10:45:13.136Z,7.25
2022-08-21T10:47:47.310Z,7.78
2022-08-21T10:50:23.807Z,7.90
2022-08-21T10:53:07.682Z,7.32
2022-08-21T10:55:41.370Z,7.40
2022-08-21T10:58:16.253Z,7.60
2022-08-21T11:00:51.684Z,7.50
2022-08-21T11:03:28.221Z,7.43
2022-08-21T11:06:01.830Z,7.57
2022-08-21T11:08:36.251Z,7.45
2022-08-21T11:11:10.723Z,7.47
2022-08-21T11:13:44.720Z,7.53
2022-08-21T11:16:20.830Z,7.43
2022-08-21T11:18:54.528Z,7.22
2022-08-21T11:21:34.261Z,8.07
2022-08-21T11:24:17.171Z,8.33
2022-08-21T11:26:51.418Z,8.00
2022-08-21T11:29:26.885Z,7.50
2022-08-21T11:32:15.871Z,8.05
2022-08-21T11:34:58.460Z,7.80
2022-08-21T11:37:42.680Z,8.13
2022-08-21T11:40:18.230Z,8.00
2022-08-21T11:42:55.581Z,7.93
2022-08-21T11:45:33.521Z,7.90
2022-08-21T11:48:11.732Z,7.75
2022-08-21T11:50:43.010Z,7.55
2022-08-21T11:53:15.760Z,7.50
2022-08-21T11:55:49.629Z,7.10
2022-08-21T11:58:23.389Z,7.60
2022-08-21T12:00:56.337Z,8.00
2022-08-21T12:03:30.185Z,8.10
2022-08-21T12:06:02.063Z,7.80
2022-08-21T12:08:33.295Z,7.97
2022-08-21T12:11:07.279Z,7.60
2022-08-21T12:13:42.077Z,7.50
2022-08-21T12:16:15.580Z,7.63
2022-08-21T12:18:45.340Z,7.65
2022-08-21T12:21:24.630Z,8.02
2022-08-21T12:24:05.634Z,8.18
2022-08-21T12:26:37.077Z,7.90
2022-08-21T12:29:18.709Z,7.47
2022-08-21T12:31:54.841Z,7.78
2022-08-21T12:34:26.836Z,7.22
2022-08-21T12:37:00.816Z,7.85
2022-08-21T12:39:33.210Z,7.70
2022-08-21T12:42:07.298Z,8.25
2022-08-21T12:44:41.049Z,7.90
2022-08-21T12:47:18.112Z,7.47
2022-08-21T12:49:55.450Z,8.00
2022-08-21T12:52:26.940Z,8.30
2022-08-21T12:54:55.490Z,8.25
2022-08-21T12:57:27.236Z,7.70
2022-08-21T12:59:59.639Z,7.75
2022-08-21T13:02:33.509Z,8.40
2022-08-21T13:05:06.501Z,7.65
2022-08-21T13:07:37.885Z,8.73
2022-08-21T13:10:09.842Z,8.25
2022-08-21T13:12:38.729Z,9.10
2022-08-21T13:15:09.117Z,9.07
2022-08-21T13:17:42.172Z,8.80
2022-08-21T13:20:20.707Z,9.23
2022-08-21T13:22:49.229Z,8.82
2022-08-21T13:25:20.123Z,9.23
2022-08-21T13:28:02.890Z,9.17
2022-08-21T13:30:32.888Z,9.10
2022-08-21T13:33:12.312Z,8.70
2022-08-21T13:35:51.020Z,8.70
2022-08-21T13:38:27.174Z,9.17
2022-08-21T13:40:59.089Z,8.80
2022-08-21T13:43:30.660Z,8.67
2022-08-21T13:45:59.952Z,9.20
2022-08-21T13:48:35.151Z,8.90
2022-08-21T13:51:04.896Z,9.17
2022-08-21T13:53:34.857Z,9.00
2022-08-21T13:56:05.501Z,9.10
2022-08-21T13:58:43.102Z,9.73
2022-08-21T14:01:21.128Z,9.30
2022-08-21T14:03:52.740Z,8.77
2022-08-21T14:06:24.869Z,9.07
2022-08-21T14:08:55.990Z,10.60
2022-08-21T14:11:24.761Z,9.73
2022-08-21T14:14:00.089Z,9.37
2022-08-21T14:16:31.452Z,9.77
2022-08-21T14:19:12.899Z,9.93
2022-08-21T14:21:44.769Z,9.50
2022-08-21T14:24:15.630Z,9.30
2022-08-21T14:26:53.849Z,8.90
2022-08-21T14:29:26.502Z,9.10
2022-08-21T14:31:57.605Z,8.97
2022-08-21T14:34:35.778Z,10.10
2022-08-21T14:37:04.605Z,10.10
2022-08-21T14:39:33.344Z,10.27
2022-08-21T14:42:02.322Z,10.50
2022-08-21T14:44:34.122Z,10.90
2022-08-21T14:47:02.811Z,10.77
2022-08-21T14:49:32.809Z,11.40
2022-08-21T14:52:01.410Z,11.07
2022-08-21T14:54:32.651Z,11.37
2022-08-21T14:57:05.739Z,11.10
2022-08-21T14:59:35.780Z,11.73
2022-08-21T15:02:05.610Z,11.67
2022-08-21T15:04:36.304Z,10.43
2022-08-21T15:07:05.512Z,11.03
2022-08-21T15:09:34.053Z,10.40
2022-08-21T15:12:04.333Z,11.07
2022-08-21T15:14:36.079Z,10.47
2022-08-21T15:17:05.586Z,10.77
2022-08-21T15:19:35.887Z,9.83
2022-08-21T15:22:04.969Z,10.13
2022-08-21T15:24:34.161Z,9.93
2022-08-21T15:27:05.431Z,11.17
2022-08-21T15:29:34.610Z,10.50
2022-08-21T15:32:18.079Z,11.40
2022-08-21T15:34:48.023Z,11.67
2022-08-21T15:37:16.712Z,11.13
2022-08-21T15:39:48.480Z,11.47
2022-08-21T15:42:21.665Z,10.30
2022-08-21T15:44:50.946Z,9.63
2022-08-21T15:47:23.272Z,9.97
2022-08-21T15:49:53.248Z,9.43
2022-08-21T15:52:23.884Z,11.50
2022-08-21T15:54:52.920Z,12.30
2022-08-21T15:57:23.508Z,12.00
2022-08-21T15:59:55.487Z,12.13
2022-08-21T16:02:27.706Z,12.57
2022-08-21T16:04:58.450Z,12.33
2022-08-21T16:07:27.480Z,12.07
2022-08-21T16:09:56.230Z,11.67
2022-08-21T16:12:28.166Z,10.90
2022-08-21T16:14:57.110Z,10.87
2022-08-21T16:17:30.992Z,10.70
2022-08-21T16:20:03.038Z,10.50
2022-08-21T16:22:39.910Z,10.40
2022-08-21T16:25:14.500Z,10.50
2022-08-21T16:27:45.681Z,9.97
2022-08-21T16:30:15.431Z,10.40
2022-08-21T16:32:44.784Z,10.30
2022-08-21T16:35:18.490Z,10.20
2022-08-21T16:37:51.149Z,10.40
2022-08-21T16:40:23.248Z,10.17
2022-08-21T16:42:52.320Z,9.47
2022-08-21T16:45:22.576Z,10.03
2022-08-21T16:47:51.364Z,10.17
2022-08-21T16:50:25.462Z,10.60
2022-08-21T16:52:54.540Z,10.90
2022-08-21T16:55:23.030Z,11.40
2022-08-21T16:57:51.569Z,11.67
2022-08-21T17:00:20.205Z,11.27
2022-08-21T17:02:53.492Z,11.90
2022-08-21T17:05:23.552Z,11.93
2022-08-21T17:07:52.142Z,12.00
2022-08-21T17:10:21.580Z,11.70
2022-08-21T17:12:56.303Z,11.57
2022-08-21T17:15:29.031Z,11.50
2022-08-21T17:17:57.761Z,11.50
2022-08-21T17:20:28.306Z,11.23
2022-08-21T17:22:57.129Z,11.53
2022-08-21T17:25:27.143Z,10.40
2022-08-21T17:27:56.730Z,10.20
2022-08-21T17:30:25.539Z,10.10
2022-08-21T17:32:58.304Z,10.00
2022-08-21T17:35:28.379Z,9.70
2022-08-21T17:37:56.978Z,10.10
2022-08-21T17:40:25.942Z,9.90
2022-08-21T17:42:54.484Z,9.70
2022-08-21T17:45:23.269Z,9.37
2022-08-21T17:47:51.741Z,9.53
2022-08-21T17:50:22.461Z,9.67
2022-08-21T17:52:53.155Z,9.10
2022-08-21T17:55:23.057Z,8.33
2022-08-21T17:57:53.407Z,9.30
2022-08-21T18:00:23.291Z,9.07
2022-08-21T18:03:01.216Z,9.20
2022-08-21T18:05:30.479Z,8.60
2022-08-21T18:08:00.383Z,8.97
2022-08-21T18:10:29.607Z,8.40
2022-08-21T18:12:59.107Z,8.20
2022-08-21T18:15:27.896Z,8.77
2022-08-21T18:17:56.421Z,8.30
2022-08-21T18:20:25.539Z,8.80
2022-08-21T18:22:54.059Z,8.70
2022-08-21T18:25:23.989Z,8.77
2022-08-21T18:27:52.963Z,7.90
2022-08-21T18:30:24.796Z,8.53
2022-08-21T18:32:56.477Z,8.30
2022-08-21T18:35:25.182Z,8.20
2022-08-21T18:37:53.749Z,8.20
2022-08-21T18:40:23.828Z,8.30
2022-08-21T18:42:58.528Z,8.60
2022-08-21T18:45:27.298Z,8.20
2022-08-21T18:47:59.212Z,8.30
2022-08-21T18:50:29.325Z,8.77
2022-08-21T18:52:58.281Z,8.10
2022-08-21T18:55:28.401Z,7.93
2022-08-21T18:57:58.051Z,8.30
2022-08-21T19:00:30.384Z,8.13
2022-08-21T19:02:59.654Z,8.00
2022-08-21T19:05:28.631Z,7.90
2022-08-21T19:07:57.616Z,7.20
2022-08-21T19:13:21.996Z,8.50
2022-08-21T19:15:54.105Z,7.67
2022-08-21T19:18:28.431Z,8.33
2022-08-21T19:20:58.362Z,7.70
2022-08-21T19:23:30.132Z,8.10
2022-08-21T19:26:03.211Z,7.47
2022-08-21T19:28:34.181Z,7.80
2022-08-21T19:31:10.214Z,7.77
2022-08-21T19:33:42.050Z,8.90
2022-08-21T19:36:13.315Z,8.17
2022-08-21T19:38:42.715Z,9.20
2022-08-21T19:41:15.889Z,7.90
2022-08-21T19:43:48.201Z,8.17
2022-08-21T19:46:24.450Z,7.70
2022-08-21T19:48:54.757Z,7.93
2022-08-21T19:51:24.012Z,7.70
2022-08-21T19:53:57.242Z,7.40
2022-08-21T19:56:30.811Z,7.83
2022-08-21T19:58:59.855Z,7.43
2022-08-21T20:01:29.357Z,7.77
2022-08-21T20:04:00.973Z,7.93
2022-08-21T20:06:29.600Z,8.03
2022-08-21T20:08:58.583Z,7.83
2022-08-21T20:11:31.884Z,7.83
2022-08-21T20:14:01.599Z,7.77
2022-08-21T20:16:30.952Z,7.27
2022-08-21T20:19:00.184Z,7.37
2022-08-21T20:21:28.833Z,7.83
2022-08-21T20:23:57.641Z,7.63
2022-08-21T20:26:26.720Z,7.87
2022-08-21T20:28:57.923Z,8.20
2022-08-21T20:31:27.865Z,7.70
2022-08-21T20:33:57.687Z,7.23
2022-08-21T20:36:26.521Z,7.50
2022-08-21T20:38:55.157Z,7.57
2022-08-21T20:41:30.512Z,7.90
2022-08-21T20:44:16.720Z,7.80
2022-08-21T20:46:45.844Z,8.23
2022-08-21T20:49:20.599Z,7.50
2022-08-21T20:51:53.201Z,7.17
2022-08-21T20:54:28.361Z,7.17
2022-08-21T20:57:01.151Z,6.90
2022-08-21T20:59:53.112Z,6.20
2022-08-21T21:02:30.272Z,7.30
2022-08-21T21:05:05.365Z,7.30
2022-08-21T21:07:56.331Z,7.10
2022-08-21T21:10:32.355Z,7.33
2022-08-21T21:13:09.239Z,7.00
2022-08-21T21:15:42.258Z,6.80
2022-08-21T21:18:18.993Z,7.20
2022-08-21T21:20:53.562Z,7.17
2022-08-21T21:23:30.285Z,6.90
2022-08-21T21:26:04.000Z,7.33
2022-08-21T21:28:45.755Z,6.57
2022-08-21T21:31:17.970Z,6.90
2022-08-21T21:33:48.180Z,7.10
2022-08-21T21:36:25.981Z,7.07
2022-08-21T21:39:08.691Z,6.80
2022-08-21T21:41:44.919Z,7.50
2022-08-21T21:44:28.730Z,6.80
2022-08-21T21:47:07.982Z,7.30
2022-08-21T21:49:59.381Z,6.80
2022-08-21T21:52:39.303Z,7.20
2022-08-21T21:55:30.532Z,6.90
2022-08-21T21:58:19.872Z,6.20
2022-08-21T22:01:01.701Z,6.63
2022-08-21T22:03:39.637Z,6.90
2022-08-21T22:06:13.886Z,7.00
2022-08-21T22:08:50.985Z,7.20
2022-08-21T22:11:28.551Z,7.10
2022-08-21T22:14:08.538Z,6.90
2022-08-21T22:16:37.872Z,7.13
2022-08-21T22:19:17.655Z,7.60
2022-08-21T22:21:53.301Z,6.83
2022-08-21T22:24:27.804Z,6.97
2022-08-21T22:27:02.013Z,6.93
2022-08-21T22:29:46.491Z,6.97
2022-08-21T22:32:25.352Z,7.37
2022-08-21T22:35:17.272Z,6.70
2022-08-21T22:37:49.231Z,7.10
2022-08-21T22:40:24.861Z,6.77
2022-08-21T22:43:03.710Z,7.20
2022-08-21T22:45:53.493Z,7.07
2022-08-21T22:48:23.383Z,7.20
2022-08-21T22:51:00.770Z,7.47
2022-08-21T22:53:33.623Z,7.70
2022-08-21T22:56:04.442Z,7.93
2022-08-21T22:58:34.874Z,8.03
2022-08-21T23:01:09.631Z,7.90
2022-08-21T23:03:45.615Z,7.63
2022-08-21T23:06:26.480Z,7.20
2022-08-21T23:08:55.479Z,7.57
2022-08-21T23:11:28.912Z,7.70
2022-08-21T23:13:57.470Z,7.40
2022-08-21T23:16:47.207Z,7.60
2022-08-21T23:19:26.432Z,7.73
2022-08-21T23:22:07.088Z,7.67
2022-08-21T23:24:56.758Z,8.03
2022-08-21T23:27:36.106Z,7.90
2022-08-21T23:30:09.890Z,8.10
2022-08-21T23:33:10.933Z,7.60
2022-08-21T23:36:03.791Z,7.97
2022-08-21T23:38:45.174Z,8.20
2022-08-21T23:41:34.841Z,8.57
2022-08-21T23:44:16.641Z,8.13
2022-08-21T23:46:59.721Z,8.40
2022-08-21T23:49:44.237Z,8.10
2022-08-21T23:52:20.943Z,8.23
2022-08-21T23:55:05.360Z,8.80
2022-08-21T23:57:51.023Z,8.33
